Time;durP1;ratioP1;P1;durP2;ratioP2;P2;SDS_P1;SDS_P2;PMS_P1;PMS_P2;Temp;Humidity;BMP_temperature;BMP_pressure;BME280_temperature;BME280_humidity;BME280_pressure;Samples;Min_cycle;Max_cycle;Signal;HPM_P1;HPM_P2
2021/04/30 00:01:51;;;;;;;110.72;98.55;;;18.70;99.90;;;;;;4935364;29;20047;-68
2021/04/30 00:04:19;;;;;;;112.18;100.68;;;18.80;99.90;;;;;;4931606;29;20039;-68
2021/04/30 00:06:46;;;;;;;115.20;103.00;;;18.80;99.90;;;;;;4934983;29;20123;-68
2021/04/30 00:09:22;;;;;;;109.30;97.82;;;19.10;99.90;;;;;;4916070;29;20485;-68
2021/04/30 00:11:50;;;;;;;109.38;98.38;;;19.60;99.90;;;;;;4918501;29;20031;-68
2021/04/30 00:14:18;;;;;;;113.90;102.03;;;19.30;99.90;;;;;;4914495;29;20067;-68
2021/04/30 00:16:48;;;;;;;98.05;87.60;;;19.30;99.90;;;;;;4914627;29;20044;-67
2021/04/30 00:19:16;;;;;;;105.07;94.18;;;19.50;99.90;;;;;;4914659;29;20070;-68
2021/04/30 00:21:43;;;;;;;91.60;81.63;;;19.80;99.90;;;;;;4914980;29;20059;-67
2021/04/30 00:24:11;;;;;;;91.03;81.35;;;20.20;99.90;;;;;;4931451;29;20050;-68
2021/04/30 00:26:39;;;;;;;101.63;90.82;;;20.40;99.90;;;;;;4931757;29;20201;-68
2021/04/30 00:29:07;;;;;;;94.55;84.57;;;20.60;99.90;;;;;;4929387;29;20027;-68
2021/04/30 00:31:35;;;;;;;96.95;86.22;;;20.40;99.90;;;;;;4914468;29;20052;-68
2021/04/30 00:34:04;;;;;;;92.28;82.38;;;20.60;99.90;;;;;;4928807;29;20043;-68
2021/04/30 00:36:32;;;;;;;94.03;84.03;;;20.70;99.90;;;;;;4929717;29;20031;-68
2021/04/30 00:39:00;;;;;;;93.47;83.57;;;20.80;99.90;;;;;;4928697;29;20114;-68
2021/04/30 00:41:27;;;;;;;90.85;81.55;;;20.80;99.90;;;;;;4932167;29;20036;-68
2021/04/30 00:43:54;;;;;;;91.50;82.00;;;21.00;99.90;;;;;;4930942;29;20035;-68
2021/04/30 00:46:22;;;;;;;91.15;81.80;;;20.60;99.90;;;;;;4932222;29;20544;-68
2021/04/30 00:48:49;;;;;;;74.60;66.78;;;20.80;99.90;;;;;;4932816;29;20063;-68
2021/04/30 00:51:16;;;;;;;63.40;56.83;;;20.80;99.90;;;;;;4931191;29;20051;-68
2021/04/30 00:53:44;;;;;;;63.13;56.40;;;21.00;99.90;;;;;;4925468;29;20059;-69
2021/04/30 00:56:11;;;;;;;61.58;53.50;;;21.30;99.90;;;;;;4934368;29;20030;-68
2021/04/30 00:58:38;;;;;;;58.20;52.13;;;21.60;99.90;;;;;;4922283;29;20039;-67
2021/04/30 01:01:06;;;;;;;55.65;49.80;;;21.80;99.90;;;;;;4934966;29;20481;-67
2021/04/30 01:03:34;;;;;;;52.75;47.13;;;22.20;99.90;;;;;;4933322;29;20028;-67
2021/04/30 01:06:02;;;;;;;55.63;49.67;;;22.20;99.90;;;;;;4914996;29;20504;-67
2021/04/30 01:08:29;;;;;;;62.60;55.88;;;22.40;99.90;;;;;;4933729;29;20031;-67
2021/04/30 01:10:56;;;;;;;56.17;49.22;;;22.30;99.90;;;;;;4935002;29;20165;-68
2021/04/30 01:13:24;;;;;;;44.92;38.60;;;22.00;99.90;;;;;;4917150;29;20100;-68
2021/04/30 01:15:51;;;;;;;40.17;35.88;;;22.00;99.90;;;;;;4931436;29;20044;-67
2021/04/30 01:18:18;;;;;;;35.65;31.55;;;21.70;99.90;;;;;;4932442;29;20060;-68
2021/04/30 01:20:46;;;;;;;38.35;34.50;;;22.00;99.90;;;;;;4933105;29;20067;-67
2021/04/30 01:23:13;;;;;;;35.20;31.45;;;22.10;99.90;;;;;;4919279;29;20046;-68
2021/04/30 01:25:40;;;;;;;36.22;32.47;;;22.30;99.90;;;;;;4919208;29;20135;-68
2021/04/30 01:28:08;;;;;;;48.42;43.33;;;22.30;99.90;;;;;;4919475;29;20393;-68
2021/04/30 01:30:39;;;;;;;43.78;39.40;;;22.60;99.90;;;;;;4937319;29;20036;-68
2021/04/30 01:33:26;;;;;;;51.65;46.13;;;22.50;99.90;;;;;;4918939;29;20488;-68
2021/04/30 01:35:53;;;;;;;44.30;39.58;;;22.20;99.90;;;;;;4934023;29;20421;-67
2021/04/30 01:38:21;;;;;;;39.45;35.15;;;22.30;99.90;;;;;;4928628;29;20106;-67
2021/04/30 01:40:48;;;;;;;36.25;32.33;;;22.10;99.90;;;;;;4937988;29;20127;-68
2021/04/30 01:43:22;;;;;;;39.53;35.50;;;21.90;99.90;;;;;;4937275;29;20082;-68
2021/04/30 01:45:53;;;;;;;;;;;22.00;99.90;;;;;;4937803;29;20024;-68
2021/04/30 01:48:28;;;;;;;38.75;34.75;;;22.10;99.90;;;;;;4918613;29;19969;-68
2021/04/30 01:50:57;;;;;;;38.72;34.65;;;22.30;99.90;;;;;;4937516;29;20035;-68
2021/04/30 01:53:28;;;;;;;38.30;34.28;;;22.50;99.90;;;;;;4932214;29;20043;-67
2021/04/30 01:56:00;;;;;;;36.10;32.42;;;22.60;99.90;;;;;;4932650;29;20044;-68
2021/04/30 01:58:28;;;;;;;38.33;32.15;;;23.00;99.90;;;;;;4934282;29;20036;-68
2021/04/30 02:00:56;;;;;;;31.50;28.17;;;23.20;99.90;;;;;;4917816;29;20568;-68
2021/04/30 02:03:24;;;;;;;23.25;20.83;;;23.30;99.90;;;;;;4933776;29;20035;-68
2021/04/30 02:05:52;;;;;;;21.08;18.88;;;23.50;99.90;;;;;;4939326;29;20047;-68
2021/04/30 02:08:20;;;;;;;18.60;14.38;;;23.80;99.90;;;;;;4935837;29;20027;-67
2021/04/30 02:10:48;;;;;;;10.75;9.65;;;24.00;99.90;;;;;;4934174;29;20035;-68
2021/04/30 02:13:16;;;;;;;7.40;5.65;;;23.90;99.90;;;;;;4932384;29;20055;-68
2021/04/30 02:15:49;;;;;;;7.93;4.40;;;24.10;99.90;;;;;;4935271;29;20175;-68
2021/04/30 02:18:16;;;;;;;4.25;2.78;;;23.80;99.90;;;;;;4935484;29;20106;-68
2021/04/30 02:20:44;;;;;;;5.30;2.22;;;23.60;99.90;;;;;;4936879;29;20123;-67
2021/04/30 02:23:13;;;;;;;5.45;2.75;;;24.00;99.90;;;;;;4916124;29;20512;-67
2021/04/30 02:25:41;;;;;;;2.80;2.17;;;24.30;99.90;;;;;;4935292;29;20126;-68
2021/04/30 02:28:09;;;;;;;5.60;3.45;;;24.60;99.90;;;;;;4934712;29;20572;-68
2021/04/30 02:30:39;;;;;;;2.83;2.10;;;24.90;99.90;;;;;;4937151;29;20059;-68
2021/04/30 02:33:07;;;;;;;3.72;3.10;;;25.00;99.90;;;;;;4934438;29;20032;-68
2021/04/30 02:35:41;;;;;;;2.17;1.90;;;24.70;99.90;;;;;;4937092;29;20043;-68
2021/04/30 02:38:10;;;;;;;18.15;14.38;;;25.00;99.90;;;;;;4935943;29;20036;-68
2021/04/30 02:40:40;;;;;;;17.98;15.10;;;24.20;99.90;;;;;;4928593;29;20040;-68
2021/04/30 02:43:10;;;;;;;19.27;15.52;;;24.20;99.90;;;;;;4930534;29;20680;-68
2021/04/30 02:45:38;;;;;;;21.00;15.93;;;24.00;99.90;;;;;;4933561;29;20049;-68
2021/04/30 02:48:12;;;;;;;19.27;15.85;;;24.40;99.90;;;;;;4915056;29;20039;-68
2021/04/30 02:50:40;;;;;;;17.52;15.77;;;24.30;99.90;;;;;;4932121;29;20039;-68
2021/04/30 02:53:08;;;;;;;17.38;15.50;;;24.30;99.90;;;;;;4934677;29;20433;-68
2021/04/30 02:55:35;;;;;;;17.02;14.55;;;23.90;99.90;;;;;;4935992;29;20071;-68
2021/04/30 02:58:03;;;;;;;14.43;12.68;;;23.40;99.90;;;;;;4933644;29;20477;-68
2021/04/30 03:00:31;;;;;;;13.43;11.35;;;23.10;99.90;;;;;;4934440;29;20110;-68
2021/04/30 03:03:00;;;;;;;11.90;10.65;;;23.00;99.90;;;;;;4917873;29;20134;-68
2021/04/30 03:05:27;;;;;;;16.08;10.48;;;22.90;99.90;;;;;;4918736;29;20568;-68
2021/04/30 03:07:55;;;;;;;10.38;7.28;;;22.80;99.90;;;;;;4933368;29;20036;-68
2021/04/30 03:10:22;;;;;;;6.78;4.03;;;23.00;99.90;;;;;;4933828;29;20036;-68
2021/04/30 03:12:51;;;;;;;5.13;3.65;;;22.70;99.90;;;;;;4934390;29;20525;-68
2021/04/30 03:15:18;;;;;;;6.22;3.83;;;23.30;99.90;;;;;;4931528;29;20043;-68
2021/04/30 03:17:47;;;;;;;3.78;3.30;;;23.50;99.90;;;;;;4933115;29;20055;-68
2021/04/30 03:20:17;;;;;;;4.22;2.72;;;23.20;99.90;;;;;;4918350;29;20095;-68
2021/04/30 03:22:44;;;;;;;2.63;1.70;;;23.20;99.90;;;;;;4936279;29;20063;-68
2021/04/30 03:25:13;;;;;;;4.50;2.30;;;23.30;99.90;;;;;;4934454;29;20125;-68
2021/04/30 03:27:40;;;;;;;5.22;2.75;;;23.00;99.90;;;;;;4932414;29;20400;-68
2021/04/30 03:30:09;;;;;;;5.00;2.10;;;22.90;99.90;;;;;;4915880;29;20039;-68
2021/04/30 03:32:36;;;;;;;4.95;2.40;;;23.20;99.90;;;;;;4934761;29;20073;-68
2021/04/30 03:35:05;;;;;;;8.15;3.45;;;23.00;99.90;;;;;;4934637;29;20520;-68
2021/04/30 03:37:33;;;;;;;5.85;3.20;;;22.60;99.90;;;;;;4932557;29;20095;-68
2021/04/30 03:40:00;;;;;;;5.95;3.22;;;22.60;99.90;;;;;;4933405;29;20543;-68
2021/04/30 03:42:27;;;;;;;5.05;2.97;;;22.50;99.90;;;;;;4947708;28;20078;-68
2021/04/30 03:44:55;;;;;;;6.35;3.13;;;23.10;99.90;;;;;;4919620;29;20055;-68
2021/04/30 03:47:22;;;;;;;5.88;3.95;;;23.00;99.90;;;;;;4933447;29;20047;-68
2021/04/30 03:49:49;;;;;;;4.68;2.90;;;23.10;99.90;;;;;;4932372;29;20039;-68
2021/04/30 03:52:16;;;;;;;4.07;2.40;;;23.00;99.90;;;;;;4923948;29;20047;-68
2021/04/30 03:54:44;;;;;;;5.85;2.35;;;23.00;99.90;;;;;;4928966;29;20083;-68
2021/04/30 03:57:11;;;;;;;5.07;2.88;;;22.70;99.90;;;;;;4934694;29;20031;-68
2021/04/30 03:59:38;;;;;;;5.25;3.33;;;22.40;99.90;;;;;;4917543;29;20040;-68
2021/04/30 04:02:06;;;;;;;9.30;5.60;;;22.40;99.90;;;;;;4935008;29;20063;-68
2021/04/30 04:04:33;;;;;;;10.98;6.50;;;22.50;99.90;;;;;;4932724;29;20031;-68
2021/04/30 04:07:00;;;;;;;5.75;4.18;;;22.30;99.90;;;;;;4932960;29;20581;-68
2021/04/30 04:09:27;;;;;;;4.25;3.85;;;22.60;99.90;;;;;;4933152;29;20116;-68
2021/04/30 04:11:55;;;;;;;8.20;4.78;;;22.60;99.90;;;;;;4929293;29;20036;-68
2021/04/30 04:14:22;;;;;;;7.65;4.20;;;22.50;99.90;;;;;;4923613;29;20509;-68
2021/04/30 04:16:49;;;;;;;6.38;4.72;;;22.30;99.90;;;;;;4935527;29;20043;-68
2021/04/30 04:19:17;;;;;;;6.05;4.05;;;22.20;99.90;;;;;;4934030;29;20449;-68
2021/04/30 04:21:47;;;;;;;5.70;3.30;;;22.20;99.90;;;;;;4933843;29;20114;-67
2021/04/30 04:24:15;;;;;;;4.35;2.75;;;22.30;99.90;;;;;;4933134;29;20028;-67
2021/04/30 04:26:42;;;;;;;5.68;3.30;;;22.20;99.90;;;;;;4932032;29;20039;-67
2021/04/30 04:29:10;;;;;;;5.97;2.88;;;22.10;99.90;;;;;;4926438;29;20039;-67
2021/04/30 04:31:37;;;;;;;5.30;3.08;;;22.10;99.90;;;;;;4935096;29;20129;-68
2021/04/30 04:34:05;;;;;;;5.70;3.05;;;21.90;99.90;;;;;;4942263;29;20046;-68
2021/04/30 04:36:33;;;;;;;7.93;2.90;;;21.80;99.90;;;;;;4933315;29;20075;-67
2021/04/30 04:39:00;;;;;;;6.22;3.13;;;21.70;99.90;;;;;;4922548;29;20503;-67
2021/04/30 04:41:28;;;;;;;12.15;2.55;;;21.50;99.90;;;;;;4933343;29;20071;-68
2021/04/30 04:43:55;;;;;;;5.22;1.98;;;21.50;99.90;;;;;;4929278;29;20403;-68
2021/04/30 04:46:23;;;;;;;3.75;1.23;;;21.50;99.90;;;;;;4929848;29;20048;-67
2021/04/30 04:48:50;;;;;;;4.20;1.70;;;21.50;99.90;;;;;;4928872;29;20043;-68
2021/04/30 04:51:17;;;;;;;4.65;2.70;;;21.50;99.90;;;;;;4930187;29;20493;-68
2021/04/30 04:53:45;;;;;;;5.78;2.75;;;21.40;99.90;;;;;;4929624;29;20106;-68
2021/04/30 04:56:12;;;;;;;3.83;2.13;;;21.40;99.90;;;;;;4932697;29;20036;-67
2021/04/30 04:58:40;;;;;;;5.60;2.15;;;21.30;99.90;;;;;;4936789;29;20115;-68
2021/04/30 05:01:07;;;;;;;6.15;2.55;;;21.30;99.90;;;;;;4919958;29;20043;-68
2021/04/30 05:03:35;;;;;;;5.80;2.95;;;21.30;99.90;;;;;;4933613;29;20405;-67
2021/04/30 05:06:02;;;;;;;6.63;2.13;;;21.30;99.90;;;;;;4930300;29;20477;-67
2021/04/30 05:08:29;;;;;;;4.38;2.50;;;21.10;99.90;;;;;;4934718;29;20123;-68
2021/04/30 05:10:57;;;;;;;4.00;1.60;;;21.10;99.90;;;;;;4934948;29;20105;-68
2021/04/30 05:13:24;;;;;;;4.28;1.95;;;21.10;99.90;;;;;;4917303;29;20287;-68
2021/04/30 05:15:51;;;;;;;3.55;1.10;;;21.20;99.90;;;;;;4936431;29;20042;-67
2021/04/30 05:18:19;;;;;;;6.43;1.48;;;21.10;99.90;;;;;;4937072;29;20038;-67
2021/04/30 05:20:46;;;;;;;1.80;0.88;;;21.00;99.90;;;;;;4937718;29;20056;-67
2021/04/30 05:23:13;;;;;;;2.50;0.70;;;20.90;99.90;;;;;;4935083;29;20079;-67
2021/04/30 05:25:41;;;;;;;3.38;0.52;;;20.80;99.90;;;;;;4938811;29;20162;-67
2021/04/30 05:28:08;;;;;;;5.88;0.75;;;20.80;99.90;;;;;;4937062;29;20035;-67
2021/04/30 05:30:35;;;;;;;2.05;0.50;;;20.70;99.90;;;;;;4938535;29;20083;-67
2021/04/30 05:33:03;;;;;;;4.43;0.90;;;20.80;99.90;;;;;;4936545;29;20043;-67
2021/04/30 05:35:30;;;;;;;1.30;0.50;;;20.80;99.90;;;;;;4938688;29;20716;-67
2021/04/30 05:37:58;;;;;;;2.42;1.00;;;20.80;99.90;;;;;;4937624;29;20028;-68
2021/04/30 05:40:25;;;;;;;1.45;0.73;;;20.70;99.90;;;;;;4931269;29;20052;-67
2021/04/30 05:42:53;;;;;;;2.80;0.70;;;20.70;99.90;;;;;;4924723;29;20056;-67
2021/04/30 05:45:20;;;;;;;2.72;0.70;;;20.70;99.90;;;;;;4936184;29;20397;-67
2021/04/30 05:47:47;;;;;;;2.90;0.70;;;20.60;99.90;;;;;;4918764;29;20040;-68
2021/04/30 05:50:15;;;;;;;1.83;0.63;;;20.60;99.90;;;;;;4920035;29;20445;-69
2021/04/30 05:52:42;;;;;;;3.75;0.40;;;20.60;99.90;;;;;;4934315;29;20035;-68
2021/04/30 05:55:11;;;;;;;0.82;0.40;;;20.50;99.90;;;;;;4935510;29;20056;-69
2021/04/30 05:57:39;;;;;;;1.75;0.50;;;20.40;99.90;;;;;;4917840;29;20046;-68
2021/04/30 06:00:13;;;;;;;3.13;0.63;;;20.40;99.90;;;;;;4929842;29;20091;-68
2021/04/30 06:02:41;;;;;;;3.58;0.70;;;20.40;99.90;;;;;;4918464;29;20076;-67
2021/04/30 06:05:09;;;;;;;1.83;0.80;;;20.30;99.90;;;;;;4923699;29;20083;-68
2021/04/30 06:07:36;;;;;;;2.67;0.40;;;20.30;99.90;;;;;;4935463;29;20027;-67
2021/04/30 06:10:05;;;;;;;1.30;0.30;;;20.20;99.90;;;;;;4918287;29;20040;-68
2021/04/30 06:12:32;;;;;;;2.47;0.77;;;20.20;99.90;;;;;;4927676;29;20047;-68
2021/04/30 06:15:00;;;;;;;1.15;0.60;;;20.20;99.90;;;;;;4933203;29;20039;-68
2021/04/30 06:17:27;;;;;;;1.17;0.20;;;20.10;99.90;;;;;;4937232;29;20032;-66
2021/04/30 06:19:55;;;;;;;0.88;0.20;;;20.10;99.90;;;;;;4935985;29;20042;-66
2021/04/30 06:22:23;;;;;;;2.60;0.40;;;20.10;99.90;;;;;;4938378;29;20036;-66
2021/04/30 06:24:50;;;;;;;1.45;0.20;;;20.00;99.90;;;;;;4918502;29;20096;-66
2021/04/30 06:27:17;;;;;;;2.25;0.50;;;20.00;99.90;;;;;;4935769;29;20043;-66
2021/04/30 06:29:45;;;;;;;3.53;0.30;;;20.00;99.90;;;;;;4905175;29;20048;-66
2021/04/30 06:32:12;;;;;;;1.67;0.17;;;20.00;99.90;;;;;;4918698;29;20036;-67
2021/04/30 06:34:39;;;;;;;1.33;0.40;;;19.90;99.90;;;;;;4914347;29;20040;-67
2021/04/30 06:37:07;;;;;;;2.42;0.25;;;19.90;99.90;;;;;;4918137;29;20063;-67
2021/04/30 06:39:34;;;;;;;0.43;0.10;;;19.90;99.90;;;;;;4918551;29;20036;-67
2021/04/30 06:42:04;;;;;;;11.90;0.68;;;19.80;99.90;;;;;;4920384;29;20075;-67
2021/04/30 06:44:32;;;;;;;1.13;0.20;;;19.80;99.90;;;;;;4912474;29;20131;-66
2021/04/30 06:47:00;;;;;;;2.38;0.30;;;19.70;99.90;;;;;;4917249;29;20043;-67
2021/04/30 06:49:27;;;;;;;0.68;0.10;;;19.60;99.90;;;;;;4930476;29;20057;-67
2021/04/30 06:51:55;;;;;;;1.13;0.20;;;19.50;99.90;;;;;;4937435;29;20032;-67
2021/04/30 06:54:22;;;;;;;0.88;0.10;;;19.60;99.90;;;;;;4929146;29;20040;-67
2021/04/30 06:56:50;;;;;;;0.82;0.20;;;19.50;99.90;;;;;;4918520;29;20095;-67
2021/04/30 06:59:17;;;;;;;1.00;0.20;;;19.50;99.90;;;;;;4928135;29;20036;-67
2021/04/30 07:01:44;;;;;;;2.13;0.35;;;19.50;99.90;;;;;;4933202;29;20040;-66
2021/04/30 07:04:11;;;;;;;0.20;0.10;;;19.40;99.90;;;;;;4934606;29;20079;-67
2021/04/30 07:06:39;;;;;;;1.58;0.10;;;19.40;99.90;;;;;;4936939;29;20042;-67
2021/04/30 07:09:06;;;;;;;0.40;0.08;;;19.40;99.90;;;;;;4918993;29;20090;-67
2021/04/30 07:11:34;;;;;;;0.75;0.30;;;19.30;99.90;;;;;;4935443;29;20050;-67
2021/04/30 07:14:02;;;;;;;4.93;0.10;;;19.30;99.90;;;;;;4931858;29;20040;-67
2021/04/30 07:16:30;;;;;;;0.98;0.17;;;19.20;99.90;;;;;;4936798;29;20119;-67
2021/04/30 07:18:57;;;;;;;2.08;0.28;;;19.20;99.90;;;;;;4934734;29;20481;-67
2021/04/30 07:21:24;;;;;;;0.73;0.13;;;19.20;99.90;;;;;;4918674;29;20040;-67
2021/04/30 07:23:52;;;;;;;3.90;0.20;;;19.20;99.90;;;;;;4934730;29;20032;-67
2021/04/30 07:26:19;;;;;;;1.23;0.32;;;19.20;99.90;;;;;;4936231;29;20044;-67
2021/04/30 07:28:47;;;;;;;2.45;0.40;;;19.10;99.90;;;;;;4934444;29;20032;-67
2021/04/30 07:31:14;;;;;;;4.50;0.22;;;19.20;99.90;;;;;;4936635;29;20032;-67
2021/04/30 07:33:47;;;;;;;5.45;0.25;;;19.00;99.90;;;;;;4919730;29;20504;-67
2021/04/30 07:36:15;;;;;;;0.80;0.28;;;19.00;99.90;;;;;;4919210;29;20036;-67
2021/04/30 07:38:43;;;;;;;1.17;0.25;;;19.00;99.90;;;;;;4916749;29;20035;-67
2021/04/30 07:41:11;;;;;;;1.58;0.60;;;19.00;99.90;;;;;;4922473;29;20040;-67
2021/04/30 07:43:41;;;;;;;2.00;0.15;;;19.00;99.90;;;;;;4915999;29;20453;-67
2021/04/30 07:46:09;;;;;;;1.25;0.22;;;19.00;99.90;;;;;;4927782;29;20038;-66
2021/04/30 07:48:36;;;;;;;0.75;0.20;;;18.90;99.90;;;;;;4920923;29;20044;-67
2021/04/30 07:51:04;;;;;;;1.92;0.30;;;18.90;99.90;;;;;;4919500;29;20051;-67
2021/04/30 07:53:33;;;;;;;1.30;0.45;;;18.90;99.90;;;;;;4934279;29;20154;-67
2021/04/30 07:56:01;;;;;;;2.13;0.30;;;18.90;99.90;;;;;;4936204;29;20106;-67
2021/04/30 07:58:29;;;;;;;2.83;0.52;;;18.80;99.90;;;;;;4932997;29;20091;-67
2021/04/30 08:00:58;;;;;;;0.65;0.20;;;18.90;99.90;;;;;;4917872;29;20079;-67
2021/04/30 08:03:26;;;;;;;2.42;0.63;;;18.90;99.90;;;;;;4932879;29;20099;-67
2021/04/30 08:05:54;;;;;;;1.38;0.30;;;18.80;99.90;;;;;;4935961;29;20094;-67
2021/04/30 08:08:21;;;;;;;3.75;0.52;;;18.80;99.90;;;;;;4935049;29;20094;-67
2021/04/30 08:10:49;;;;;;;2.03;0.20;;;18.70;99.90;;;;;;4934850;29;20083;-67
2021/04/30 08:13:16;;;;;;;1.35;0.30;;;18.60;99.90;;;;;;4933670;29;20035;-67
2021/04/30 08:15:45;;;;;;;2.15;0.43;;;18.60;99.90;;;;;;4918078;29;20039;-67
2021/04/30 08:18:12;;;;;;;0.70;0.30;;;18.60;99.90;;;;;;4933996;29;20039;-67
2021/04/30 08:20:39;;;;;;;3.55;0.30;;;18.60;99.90;;;;;;4918752;29;20058;-67
2021/04/30 08:23:07;;;;;;;1.80;0.70;;;18.60;99.90;;;;;;4917402;29;20035;-66
2021/04/30 08:25:34;;;;;;;2.15;0.35;;;18.70;99.90;;;;;;4935597;29;20338;-66
2021/04/30 08:28:01;;;;;;;0.95;0.32;;;18.70;99.90;;;;;;4933964;29;20027;-66
2021/04/30 08:30:29;;;;;;;2.00;0.50;;;18.60;99.90;;;;;;4929994;29;20775;-66
2021/04/30 08:32:56;;;;;;;1.52;0.73;;;18.60;99.90;;;;;;4934040;29;20036;-66
2021/04/30 08:35:23;;;;;;;2.45;0.50;;;18.60;99.90;;;;;;4934995;29;20503;-67
2021/04/30 08:37:51;;;;;;;3.38;1.38;;;18.60;99.90;;;;;;4918290;29;20397;-66
2021/04/30 08:40:21;;;;;;;1.77;0.63;;;18.50;99.90;;;;;;4916211;29;20375;-66
2021/04/30 08:42:51;;;;;;;4.15;0.70;;;18.40;99.90;;;;;;4911303;29;20048;-67
2021/04/30 08:45:18;;;;;;;4.20;1.08;;;18.40;99.90;;;;;;4933992;29;20122;-66
2021/04/30 08:47:46;;;;;;;2.17;0.60;;;18.50;99.90;;;;;;4933698;29;20152;-66
2021/04/30 08:50:15;;;;;;;3.30;0.95;;;18.50;99.90;;;;;;4933482;29;20408;-66
2021/04/30 08:52:42;;;;;;;2.28;0.57;;;18.50;99.90;;;;;;4935485;29;20091;-66
2021/04/30 08:55:15;;;;;;;2.28;0.80;;;18.40;99.90;;;;;;4928705;29;20094;-65
2021/04/30 08:57:52;;;;;;;3.20;0.50;;;18.50;99.90;;;;;;4916216;29;20128;-66
2021/04/30 09:00:20;;;;;;;1.45;0.40;;;18.40;99.90;;;;;;4934401;29;20039;-66
2021/04/30 09:02:47;;;;;;;4.90;0.70;;;18.50;99.90;;;;;;4935377;29;20036;-67
2021/04/30 09:05:26;;;;;;;1.42;0.40;;;18.50;99.90;;;;;;4934293;29;20130;-67
2021/04/30 09:07:56;;;;;;;3.28;0.88;;;18.40;99.90;;;;;;4915702;29;20048;-66
2021/04/30 09:10:25;;;;;;;1.35;0.57;;;18.40;99.90;;;;;;4933368;29;20036;-67
2021/04/30 09:13:10;;;;;;;2.67;0.95;;;18.40;99.90;;;;;;4915330;29;20051;-66
2021/04/30 09:15:42;;;;;;;2.28;0.80;;;18.40;99.90;;;;;;4929491;29;20087;-67
2021/04/30 09:18:23;;;;;;;3.10;0.80;;;18.40;99.90;;;;;;4933547;29;20048;-67
2021/04/30 09:20:51;;;;;;;3.00;1.27;;;18.50;99.90;;;;;;4917954;29;20119;-66
2021/04/30 09:23:37;;;;;;;1.42;0.55;;;18.50;99.90;;;;;;4916096;29;20132;-67
2021/04/30 09:26:23;;;;;;;2.25;0.57;;;18.50;99.90;;;;;;4918467;29;20473;-66
2021/04/30 09:29:05;;;;;;;4.18;0.98;;;18.40;99.90;;;;;;4933154;29;20028;-66
2021/04/30 09:31:43;;;;;;;2.17;0.47;;;18.40;99.90;;;;;;4930247;29;20067;-66
2021/04/30 09:34:25;;;;;;;2.60;0.60;;;18.40;99.90;;;;;;4915917;29;20044;-67
2021/04/30 09:37:02;;;;;;;2.17;0.75;;;18.40;99.90;;;;;;4929327;29;20043;-67
2021/04/30 09:39:31;;;;;;;3.13;1.00;;;18.30;99.90;;;;;;4909883;29;20059;-67
2021/04/30 09:42:13;;;;;;;2.92;1.40;;;18.40;99.90;;;;;;4919403;29;20111;-67
2021/04/30 09:44:43;;;;;;;2.20;1.13;;;18.50;99.90;;;;;;4936847;29;20040;-67
2021/04/30 09:47:25;;;;;;;2.28;1.20;;;18.40;99.90;;;;;;4921196;29;20040;-67
2021/04/30 09:50:05;;;;;;;4.78;1.25;;;18.40;99.90;;;;;;4935941;29;20040;-67
2021/04/30 09:52:32;;;;;;;2.90;1.20;;;18.30;99.90;;;;;;4938247;29;20433;-67
2021/04/30 09:55:05;;;;;;;3.78;1.08;;;18.30;99.90;;;;;;4919819;29;20127;-67
2021/04/30 09:57:33;;;;;;;2.38;0.77;;;18.40;99.90;;;;;;4920972;29;20047;-67
2021/04/30 10:00:02;;;;;;;3.67;0.95;;;18.40;99.90;;;;;;4919303;29;20040;-67
2021/04/30 10:02:34;;;;;;;4.03;1.10;;;18.30;99.90;;;;;;4938037;29;20027;-67
2021/04/30 10:05:21;;;;;;;3.88;0.95;;;18.30;99.90;;;;;;4935043;29;20528;-67
2021/04/30 10:07:49;;;;;;;2.58;0.68;;;18.30;99.90;;;;;;4938072;29;20040;-67
2021/04/30 10:10:22;;;;;;;4.30;0.77;;;18.40;99.90;;;;;;4936422;29;20054;-67
2021/04/30 10:12:55;;;;;;;1.13;0.75;;;18.40;99.90;;;;;;4935799;29;20051;-67
2021/04/30 10:15:22;;;;;;;6.28;1.00;;;18.40;99.90;;;;;;4919177;29;20123;-67
2021/04/30 10:17:56;;;;;;;5.28;0.95;;;18.40;99.90;;;;;;4920353;29;20095;-67
2021/04/30 10:20:23;;;;;;;4.40;0.90;;;18.40;99.90;;;;;;4934590;29;20063;-67
2021/04/30 10:22:52;;;;;;;3.55;1.20;;;18.40;99.90;;;;;;4935383;29;20583;-67
2021/04/30 10:25:21;;;;;;;4.15;1.08;;;18.30;99.90;;;;;;4931353;29;20412;-67
2021/04/30 10:27:50;;;;;;;3.33;1.52;;;18.30;99.90;;;;;;4937695;29;20118;-67
2021/04/30 10:30:30;;;;;;;8.80;1.55;;;18.30;99.90;;;;;;4918502;29;20031;-67
2021/04/30 10:33:10;;;;;;;5.47;2.13;;;18.30;99.90;;;;;;4919247;29;20044;-67
2021/04/30 10:36:04;;;;;;;3.95;1.90;;;18.30;99.90;;;;;;4937392;29;20043;-67
2021/04/30 10:38:40;;;;;;;5.68;1.40;;;18.40;99.90;;;;;;4935259;29;20044;-67
2021/04/30 10:41:10;;;;;;;3.50;0.80;;;18.40;99.90;;;;;;4920338;29;20102;-67
2021/04/30 10:43:39;;;;;;;2.95;0.85;;;18.40;99.90;;;;;;4936421;29;20039;-67
2021/04/30 10:46:24;;;;;;;3.75;0.98;;;18.40;99.90;;;;;;4920310;29;20035;-67
2021/04/30 10:49:00;;;;;;;4.90;0.80;;;18.40;99.90;;;;;;4919153;29;20043;-67
2021/04/30 10:51:28;;;;;;;3.03;1.10;;;18.40;99.90;;;;;;4920361;29;20040;-67
2021/04/30 10:54:24;;;;;;;5.28;1.02;;;18.30;99.90;;;;;;4911953;29;20052;-67
2021/04/30 10:57:12;;;;;;;3.55;1.10;;;18.30;99.90;;;;;;4916766;29;20103;-67
2021/04/30 10:59:40;;;;;;;2.45;0.52;;;18.30;99.90;;;;;;4929293;29;20031;-67
2021/04/30 11:02:21;;;;;;;4.90;1.00;;;18.30;99.90;;;;;;4919907;29;20496;-67
2021/04/30 11:05:07;;;;;;;7.60;0.50;;;18.20;99.90;;;;;;4915329;29;20405;-67
2021/04/30 11:07:54;;;;;;;3.67;0.70;;;18.20;99.90;;;;;;4918261;29;20516;-66
2021/04/30 11:10:30;;;;;;;3.10;0.47;;;18.20;99.90;;;;;;4918605;29;20044;-67
2021/04/30 11:13:15;;;;;;;1.45;0.40;;;18.20;99.90;;;;;;4935048;29;20036;-67
2021/04/30 11:15:48;;;;;;;4.10;0.70;;;18.10;99.90;;;;;;4931859;29;20048;-67
2021/04/30 11:18:19;;;;;;;3.55;1.13;;;18.00;99.90;;;;;;4932023;29;20059;-67
2021/04/30 11:20:59;;;;;;;5.60;1.60;;;18.00;99.90;;;;;;4916494;29;20044;-66
2021/04/30 11:23:42;;;;;;;4.88;1.52;;;18.00;99.90;;;;;;4913297;29;20497;-67
2021/04/30 11:26:17;;;;;;;2.15;1.17;;;18.00;99.90;;;;;;4911551;29;20035;-67
2021/04/30 11:28:45;;;;;;;2.90;1.38;;;17.90;99.90;;;;;;4915000;29;20099;-67
2021/04/30 11:31:14;;;;;;;5.82;1.45;;;18.00;99.90;;;;;;4932514;29;20777;-67
2021/04/30 11:34:15;;;;;;;3.58;0.93;;;17.90;99.90;;;;;;4914663;29;20058;-67
2021/04/30 11:36:51;;;;;;;3.83;0.73;;;17.80;99.90;;;;;;4930076;29;20588;-67
2021/04/30 11:39:25;;;;;;;4.43;0.90;;;17.80;99.90;;;;;;4932812;29;20051;-66
2021/04/30 11:41:56;;;;;;;3.80;1.38;;;17.80;99.90;;;;;;4918521;29;20044;-67
2021/04/30 11:44:24;;;;;;;4.95;0.85;;;17.80;99.90;;;;;;4916516;29;20059;-66
2021/04/30 11:47:02;;;;;;;1.80;0.80;;;17.70;99.90;;;;;;4932354;29;20047;-66
2021/04/30 11:49:31;;;;;;;2.40;0.80;;;17.70;99.90;;;;;;4931026;29;20055;-66
2021/04/30 11:51:58;;;;;;;3.47;0.82;;;17.70;99.90;;;;;;4919511;29;20028;-67
2021/04/30 11:54:34;;;;;;;1.40;0.68;;;17.70;99.90;;;;;;4917854;29;20146;-66
2021/04/30 11:57:12;;;;;;;2.72;0.75;;;17.60;99.90;;;;;;4936296;29;20039;-66
2021/04/30 11:59:41;;;;;;;5.75;2.28;;;17.70;99.90;;;;;;4933597;29;20035;-66
2021/04/30 12:02:13;;;;;;;7.53;2.83;;;17.70;99.90;;;;;;4934297;29;20035;-66
2021/04/30 12:04:54;;;;;;;4.47;2.38;;;17.60;99.90;;;;;;4933898;29;20080;-66
2021/04/30 12:07:24;;;;;;;11.70;4.45;;;17.60;99.90;;;;;;4934222;29;20035;-66
2021/04/30 12:09:53;;;;;;;7.75;3.65;;;17.60;99.90;;;;;;4933556;29;20035;-66
2021/04/30 12:12:25;;;;;;;5.82;3.03;;;17.60;99.90;;;;;;4934199;29;20043;-66
2021/04/30 12:14:58;;;;;;;8.20;2.85;;;17.50;99.90;;;;;;4928239;29;20052;-67
2021/04/30 12:17:32;;;;;;;8.53;3.70;;;17.60;99.90;;;;;;4934536;29;20555;-67
2021/04/30 12:20:23;;;;;;;5.70;2.65;;;17.60;99.90;;;;;;4917354;29;20071;-67
2021/04/30 12:22:54;;;;;;;6.63;4.07;;;17.60;99.90;;;;;;4916857;29;20120;-67
2021/04/30 12:25:26;;;;;;;8.43;4.20;;;17.60;99.90;;;;;;4933444;29;20044;-67
2021/04/30 12:27:54;;;;;;;8.40;4.38;;;17.60;99.90;;;;;;4916510;29;20047;-67
2021/04/30 12:30:33;;;;;;;7.85;4.28;;;17.50;99.90;;;;;;4916329;29;20035;-67
2021/04/30 12:33:01;;;;;;;9.23;3.92;;;17.50;99.90;;;;;;4930286;29;20040;-67
2021/04/30 12:35:29;;;;;;;6.85;2.92;;;17.50;99.90;;;;;;4933845;29;20044;-67
2021/04/30 12:37:57;;;;;;;9.25;3.95;;;17.40;99.90;;;;;;4916860;29;20464;-67
2021/04/30 12:40:28;;;;;;;12.75;3.60;;;17.40;99.90;;;;;;4930325;29;20084;-67
2021/04/30 12:42:59;;;;;;;4.88;2.38;;;17.40;99.90;;;;;;4916331;29;20048;-67
2021/04/30 12:45:27;;;;;;;9.75;2.58;;;17.40;99.90;;;;;;4933469;29;20078;-67
2021/04/30 12:47:56;;;;;;;4.43;2.47;;;17.40;99.90;;;;;;4933320;29;20405;-67
2021/04/30 12:50:26;;;;;;;5.40;2.38;;;17.40;99.90;;;;;;4916002;29;20046;-66
2021/04/30 12:52:58;;;;;;;5.60;3.10;;;17.30;99.90;;;;;;4916114;29;20066;-67
2021/04/30 12:55:25;;;;;;;6.65;3.60;;;17.30;99.90;;;;;;4935235;29;20134;-66
2021/04/30 12:58:20;;;;;;;5.57;2.90;;;17.20;99.90;;;;;;4933876;29;20130;-66